createdAt,value
2022-09-04T00:00:10.372Z,16.50
2022-09-04T00:02:17.911Z,16.50
2022-09-04T00:04:26.969Z,16.40
2022-09-04T00:06:31.608Z,16.40
2022-09-04T00:08:42.232Z,16.30
2022-09-04T00:10:49.405Z,16.30
2022-09-04T00:12:55.268Z,16.40
2022-09-04T00:15:00.120Z,16.30
2022-09-04T00:17:04.165Z,16.10
2022-09-04T00:19:09.724Z,16.10
2022-09-04T00:21:16.241Z,15.90
2022-09-04T00:23:21.756Z,15.80
2022-09-04T00:25:26.587Z,15.70
2022-09-04T00:27:32.925Z,15.60
2022-09-04T00:29:42.629Z,15.60
2022-09-04T00:31:48.260Z,15.50
2022-09-04T00:33:52.700Z,15.40
2022-09-04T00:35:57.031Z,15.30
2022-09-04T00:38:02.433Z,15.30
2022-09-04T00:40:09.038Z,15.20
2022-09-04T00:42:20.279Z,15.20
2022-09-04T00:44:59.573Z,15.20
2022-09-04T00:47:34.494Z,15.20
2022-09-04T00:49:44.959Z,15.20
2022-09-04T00:51:51.883Z,15.20
2022-09-04T00:54:42.539Z,15.10
2022-09-04T00:57:39.895Z,15.00
2022-09-04T01:00:03.556Z,15.00
2022-09-04T01:02:09.433Z,15.00
2022-09-04T01:04:34.543Z,15.00
2022-09-04T01:06:42.626Z,15.00
2022-09-04T01:08:56.388Z,14.90
2022-09-04T01:11:05.531Z,14.90
2022-09-04T01:13:10.203Z,15.00
2022-09-04T01:15:17.381Z,15.00
2022-09-04T01:17:27.331Z,14.80
2022-09-04T01:19:37.635Z,14.80
2022-09-04T01:21:51.312Z,14.80
2022-09-04T01:24:08.559Z,14.80
2022-09-04T01:26:14.932Z,14.70
2022-09-04T01:28:21.644Z,14.60
2022-09-04T01:30:24.381Z,14.60
2022-09-04T01:32:33.064Z,14.50
2022-09-04T01:34:40.659Z,14.50
2022-09-04T01:36:46.703Z,14.50
2022-09-04T01:38:51.552Z,14.60
2022-09-04T01:40:56.525Z,14.50
2022-09-04T01:43:01.651Z,14.50
2022-09-04T01:45:05.035Z,14.40
2022-09-04T01:47:12.198Z,14.40
2022-09-04T01:49:21.257Z,14.40
2022-09-04T01:51:27.332Z,14.30
2022-09-04T01:53:33.029Z,14.30
2022-09-04T01:55:37.763Z,14.40
2022-09-04T01:57:47.230Z,14.40
2022-09-04T02:00:00.327Z,14.20
2022-09-04T02:02:05.456Z,14.00
2022-09-04T02:04:12.440Z,14.00
2022-09-04T02:06:17.792Z,13.90
2022-09-04T02:08:36.405Z,13.80
2022-09-04T02:10:42.871Z,13.70
2022-09-04T02:12:50.952Z,13.70
2022-09-04T02:14:58.160Z,13.70
2022-09-04T02:17:08.731Z,13.60
2022-09-04T02:19:18.556Z,13.60
2022-09-04T02:21:25.841Z,13.60
2022-09-04T02:23:32.899Z,13.60
2022-09-04T02:25:37.278Z,13.50
2022-09-04T02:27:44.779Z,13.40
2022-09-04T02:29:49.525Z,13.40
2022-09-04T02:31:56.956Z,13.40
2022-09-04T02:34:02.663Z,13.40
2022-09-04T02:36:07.783Z,13.50
2022-09-04T02:38:15.971Z,13.60
2022-09-04T02:40:20.171Z,13.60
2022-09-04T02:42:26.591Z,13.70
2022-09-04T02:44:36.145Z,13.70
2022-09-04T02:46:45.159Z,13.70
2022-09-04T02:48:57.559Z,13.80
2022-09-04T02:51:13.773Z,13.80
2022-09-04T02:53:20.612Z,13.90
2022-09-04T02:55:31.735Z,13.90
2022-09-04T02:57:40.353Z,14.00
2022-09-04T02:59:52.953Z,14.00
2022-09-04T03:01:59.342Z,14.00
2022-09-04T03:04:05.862Z,14.00
2022-09-04T03:06:11.228Z,14.00
2022-09-04T03:08:15.929Z,14.00
2022-09-04T03:10:19.270Z,14.00
2022-09-04T03:12:30.770Z,13.90
2022-09-04T03:14:36.073Z,14.00
2022-09-04T03:16:41.718Z,14.00
2022-09-04T03:18:56.273Z,14.00
2022-09-04T03:21:02.123Z,14.00
2022-09-04T03:23:07.822Z,14.00
2022-09-04T03:25:26.295Z,13.90
2022-09-04T03:27:28.999Z,14.00
2022-09-04T03:29:33.625Z,14.00
2022-09-04T03:31:41.094Z,14.00
2022-09-04T03:33:45.865Z,14.00
2022-09-04T03:35:50.569Z,14.00
2022-09-04T03:38:01.061Z,14.00
2022-09-04T03:40:12.110Z,14.00
2022-09-04T03:42:19.491Z,14.00
2022-09-04T03:44:27.665Z,14.00
2022-09-04T03:46:37.948Z,14.00
2022-09-04T03:48:53.287Z,14.00
2022-09-04T03:50:58.148Z,14.00
2022-09-04T03:53:05.785Z,14.00
2022-09-04T03:55:21.380Z,13.90
2022-09-04T03:57:31.822Z,13.90
2022-09-04T03:59:42.411Z,13.90
2022-09-04T04:01:48.378Z,13.80
2022-09-04T04:04:13.634Z,13.80
2022-09-04T04:06:19.801Z,13.70
2022-09-04T04:08:41.647Z,13.60
2022-09-04T04:10:49.356Z,13.60
2022-09-04T04:13:10.301Z,13.60
2022-09-04T04:15:20.296Z,13.50
2022-09-04T04:17:44.909Z,13.40
2022-09-04T04:19:58.113Z,13.40
2022-09-04T04:22:10.307Z,13.40
2022-09-04T04:24:31.432Z,13.30
2022-09-04T04:26:40.502Z,13.30
2022-09-04T04:28:59.594Z,13.20
2022-09-04T04:31:06.049Z,13.10
2022-09-04T04:33:35.352Z,13.10
2022-09-04T04:35:43.857Z,13.10
2022-09-04T04:37:56.783Z,13.20
2022-09-04T04:40:03.924Z,13.20
2022-09-04T04:42:11.512Z,13.20
2022-09-04T04:44:16.218Z,13.30
2022-09-04T04:46:21.135Z,13.30
2022-09-04T04:48:51.354Z,13.30
2022-09-04T04:50:57.448Z,13.30
2022-09-04T04:53:03.191Z,13.30
2022-09-04T04:55:17.154Z,13.40
2022-09-04T04:57:26.847Z,13.40
2022-09-04T04:59:34.902Z,13.40
2022-09-04T05:01:43.379Z,13.40
2022-09-04T05:03:53.901Z,13.30
2022-09-04T05:05:59.696Z,13.40
2022-09-04T05:08:08.078Z,13.40
2022-09-04T05:10:18.232Z,13.40
2022-09-04T05:12:24.738Z,13.40
2022-09-04T05:14:37.227Z,13.50
2022-09-04T05:16:50.148Z,13.50
2022-09-04T05:18:58.180Z,13.50
2022-09-04T05:21:04.699Z,13.50
2022-09-04T05:23:14.104Z,13.50
2022-09-04T05:25:22.644Z,13.50
2022-09-04T05:27:40.400Z,13.60
2022-09-04T05:29:51.231Z,13.70
2022-09-04T05:31:55.941Z,13.60
2022-09-04T05:34:01.047Z,13.60
2022-09-04T05:36:08.232Z,13.60
2022-09-04T05:38:14.914Z,13.70
2022-09-04T05:40:23.377Z,13.70
2022-09-04T05:42:42.729Z,13.70
2022-09-04T05:44:52.616Z,13.80
2022-09-04T05:47:03.115Z,13.80
2022-09-04T05:49:10.500Z,13.90
2022-09-04T05:51:36.560Z,14.00
2022-09-04T05:53:49.540Z,14.00
2022-09-04T05:56:03.678Z,14.00
2022-09-04T05:58:18.594Z,14.10
2022-09-04T06:00:21.960Z,14.10
2022-09-04T06:02:57.566Z,14.20
2022-09-04T06:05:23.524Z,14.20
2022-09-04T06:07:28.871Z,14.20
2022-09-04T06:09:45.557Z,14.30
2022-09-04T06:11:58.107Z,14.30
2022-09-04T06:14:07.908Z,14.50
2022-09-04T06:16:28.241Z,14.50
2022-09-04T06:18:41.424Z,14.60
2022-09-04T06:20:54.225Z,14.70
2022-09-04T06:23:21.679Z,14.80
2022-09-04T06:25:37.434Z,14.90
2022-09-04T06:27:49.538Z,14.90
2022-09-04T06:30:01.850Z,15.00
2022-09-04T06:32:11.082Z,15.10
2022-09-04T06:34:20.249Z,15.20
2022-09-04T06:36:36.589Z,15.40
2022-09-04T06:39:08.257Z,15.50
2022-09-04T06:41:25.852Z,15.60
2022-09-04T06:43:39.981Z,15.90
2022-09-04T06:45:51.399Z,15.90
2022-09-04T06:48:05.013Z,16.00
2022-09-04T06:50:16.514Z,16.30
2022-09-04T06:52:22.228Z,16.40
2022-09-04T06:54:32.916Z,16.60
2022-09-04T06:56:48.982Z,16.80
2022-09-04T06:59:20.641Z,17.00
2022-09-04T07:01:30.087Z,17.10
2022-09-04T07:03:39.488Z,17.40
2022-09-04T07:05:46.159Z,17.50
2022-09-04T07:07:53.272Z,17.70
2022-09-04T07:10:01.224Z,17.80
2022-09-04T07:12:17.891Z,18.00
2022-09-04T07:14:36.560Z,18.20
2022-09-04T07:16:41.755Z,18.20
2022-09-04T07:18:56.747Z,18.40
2022-09-04T07:21:03.033Z,18.20
2022-09-04T07:23:24.431Z,18.30
2022-09-04T07:25:28.343Z,18.60
2022-09-04T07:27:37.947Z,18.60
2022-09-04T07:29:44.492Z,19.00
2022-09-04T07:31:49.099Z,19.20
2022-09-04T07:33:54.515Z,19.40
2022-09-04T07:35:59.712Z,19.50
2022-09-04T07:38:14.415Z,19.40
2022-09-04T07:40:17.699Z,19.30
2022-09-04T07:42:24.715Z,19.50
2022-09-04T07:44:31.653Z,19.80
2022-09-04T07:46:41.251Z,20.00
2022-09-04T07:48:47.021Z,20.20
2022-09-04T07:51:03.650Z,20.00
2022-09-04T07:53:16.145Z,19.90
2022-09-04T07:55:23.168Z,20.30
2022-09-04T07:57:38.779Z,20.60
2022-09-04T07:59:50.723Z,20.70
2022-09-04T08:02:06.525Z,20.30
2022-09-04T08:04:20.297Z,20.90
2022-09-04T08:06:24.533Z,21.20
2022-09-04T08:08:53.861Z,21.50
2022-09-04T08:11:02.954Z,21.60
2022-09-04T08:13:14.062Z,21.80
2022-09-04T08:15:19.842Z,22.10
2022-09-04T08:17:43.033Z,21.90
2022-09-04T08:19:48.740Z,22.10
2022-09-04T08:21:52.335Z,22.50
2022-09-04T08:24:07.224Z,22.40
2022-09-04T08:26:14.194Z,22.80
2022-09-04T08:28:25.465Z,22.70
2022-09-04T08:30:31.157Z,23.10
2022-09-04T08:33:09.047Z,23.40
2022-09-04T08:35:18.017Z,23.60
2022-09-04T08:37:25.139Z,23.60
2022-09-04T08:39:31.500Z,23.30
2022-09-04T08:42:06.731Z,23.70
2022-09-04T08:44:42.191Z,23.90
2022-09-04T08:47:10.362Z,23.80
2022-09-04T08:49:28.496Z,23.90
2022-09-04T08:51:52.167Z,24.40
2022-09-04T08:54:10.928Z,24.50
2022-09-04T08:56:22.254Z,24.70
2022-09-04T08:58:42.320Z,25.00
2022-09-04T09:00:57.791Z,24.90
2022-09-04T09:03:38.107Z,24.70
2022-09-04T09:06:13.508Z,24.90
2022-09-04T09:08:46.989Z,25.30
2022-09-04T09:11:23.755Z,25.00
2022-09-04T09:14:08.353Z,25.30
2022-09-04T09:16:26.172Z,25.50
2022-09-04T09:18:37.077Z,25.00
2022-09-04T09:20:46.189Z,24.90
2022-09-04T09:23:18.065Z,25.10
2022-09-04T09:25:22.773Z,24.70
2022-09-04T09:28:01.939Z,24.90
2022-09-04T09:30:08.374Z,25.30
2022-09-04T09:32:48.376Z,25.20
2022-09-04T09:35:17.735Z,25.90
2022-09-04T09:37:51.064Z,26.20
2022-09-04T09:40:16.544Z,26.50
2022-09-04T09:42:49.431Z,26.80
2022-09-04T09:45:08.729Z,26.50
2022-09-04T09:47:46.547Z,26.40
2022-09-04T09:50:01.905Z,26.50
2022-09-04T09:52:15.918Z,26.90
2022-09-04T09:55:04.294Z,27.20
2022-09-04T09:57:33.377Z,27.30
2022-09-04T10:00:06.874Z,27.20
2022-09-04T10:02:20.348Z,28.10
2022-09-04T10:04:37.626Z,28.40
2022-09-04T10:07:00.236Z,28.80
2022-09-04T10:09:38.061Z,28.80
2022-09-04T10:11:57.167Z,29.00
2022-09-04T10:14:37.168Z,28.70
2022-09-04T10:17:19.423Z,29.00
2022-09-04T10:19:47.869Z,28.70
2022-09-04T10:22:28.193Z,29.20
2022-09-04T10:24:57.519Z,29.10
2022-09-04T10:27:29.345Z,29.20
2022-09-04T10:29:49.743Z,28.70
2022-09-04T10:32:15.637Z,29.10
2022-09-04T10:34:33.516Z,29.40
2022-09-04T10:36:40.398Z,29.40
2022-09-04T10:38:58.412Z,29.60
2022-09-04T10:41:44.076Z,30.00
2022-09-04T10:44:11.583Z,30.60
2022-09-04T10:46:23.210Z,30.70
2022-09-04T10:48:59.681Z,30.00
2022-09-04T10:51:12.019Z,30.10
2022-09-04T10:53:38.940Z,30.00
2022-09-04T10:55:57.231Z,30.70
2022-09-04T10:58:15.130Z,30.90
2022-09-04T11:00:18.508Z,30.70
2022-09-04T11:02:33.979Z,31.00
2022-09-04T11:05:00.945Z,30.60
2022-09-04T11:07:28.608Z,30.90
2022-09-04T11:09:44.621Z,31.60
2022-09-04T11:12:09.347Z,31.80
2022-09-04T11:14:36.618Z,31.00
2022-09-04T11:17:17.305Z,31.30
2022-09-04T11:19:43.392Z,31.10
2022-09-04T11:22:35.345Z,31.60
2022-09-04T11:25:19.003Z,31.40
2022-09-04T11:28:01.117Z,30.80
2022-09-04T11:30:07.417Z,32.10
2022-09-04T11:32:31.884Z,31.80
2022-09-04T11:35:03.753Z,32.70
2022-09-04T11:37:18.905Z,32.70
2022-09-04T11:39:40.838Z,31.90
2022-09-04T11:42:18.107Z,31.10
2022-09-04T11:44:30.704Z,32.00
2022-09-04T11:47:06.746Z,31.90
2022-09-04T11:49:49.668Z,31.70
2022-09-04T11:52:04.035Z,32.20
2022-09-04T11:54:23.445Z,32.20
2022-09-04T11:56:39.647Z,32.10
2022-09-04T11:58:57.729Z,33.20
2022-09-04T12:01:04.048Z,32.90
2022-09-04T12:03:57.216Z,32.50
2022-09-04T12:06:13.753Z,32.20
2022-09-04T12:08:27.749Z,33.20
2022-09-04T12:10:35.362Z,33.00
2022-09-04T12:13:27.483Z,33.00
2022-09-04T12:16:18.373Z,32.60
2022-09-04T12:18:53.328Z,32.50
2022-09-04T12:21:38.152Z,32.50
2022-09-04T12:24:12.241Z,32.40
2022-09-04T12:26:51.507Z,32.40
2022-09-04T12:29:30.633Z,32.30
2022-09-04T12:31:46.861Z,32.80
2022-09-04T12:34:12.556Z,33.40
2022-09-04T12:36:27.588Z,33.30
2022-09-04T12:38:47.265Z,33.00
2022-09-04T12:40:52.829Z,32.90
2022-09-04T12:42:58.088Z,32.80
2022-09-04T12:45:04.471Z,32.80
2022-09-04T12:47:15.774Z,32.40
2022-09-04T12:49:49.848Z,33.00
2022-09-04T12:51:55.113Z,33.40
2022-09-04T12:54:08.968Z,33.80
2022-09-04T12:56:13.604Z,34.40
2022-09-04T12:58:22.168Z,34.60
2022-09-04T13:00:40.921Z,33.90
2022-09-04T13:02:57.152Z,33.60
2022-09-04T13:05:03.873Z,33.80
2022-09-04T13:07:18.749Z,33.00
2022-09-04T13:09:26.856Z,32.80
2022-09-04T13:11:37.650Z,33.00
2022-09-04T13:13:45.875Z,32.80
2022-09-04T13:15:53.685Z,32.60
2022-09-04T13:18:04.200Z,31.60
2022-09-04T13:20:10.925Z,32.20
2022-09-04T13:22:19.891Z,31.50
2022-09-04T13:24:31.793Z,32.30
2022-09-04T13:26:45.109Z,32.70
2022-09-04T13:28:52.259Z,32.80
2022-09-04T13:30:59.876Z,32.90
2022-09-04T13:33:13.706Z,32.70
2022-09-04T13:35:20.051Z,32.50
2022-09-04T13:37:25.843Z,32.50
2022-09-04T13:40:02.056Z,32.80
2022-09-04T13:42:21.614Z,32.50
2022-09-04T13:44:40.743Z,32.50
2022-09-04T13:46:45.052Z,31.40
2022-09-04T13:48:52.111Z,31.30
2022-09-04T13:50:56.001Z,31.90
2022-09-04T13:52:59.600Z,31.40
2022-09-04T13:55:03.694Z,31.40
2022-09-04T13:57:08.683Z,31.40
2022-09-04T13:59:16.107Z,30.60
2022-09-04T14:01:22.459Z,31.30
2022-09-04T14:03:34.244Z,31.60
2022-09-04T14:05:38.520Z,30.90
2022-09-04T14:07:44.872Z,31.00
2022-09-04T14:09:49.288Z,30.90
2022-09-04T14:12:07.527Z,30.50
2022-09-04T14:14:35.099Z,30.70
2022-09-04T14:16:39.033Z,30.60
2022-09-04T14:19:19.213Z,30.70
2022-09-04T14:21:30.206Z,30.90
2022-09-04T14:23:40.528Z,30.90
2022-09-04T14:25:45.170Z,30.60
2022-09-04T14:27:53.269Z,30.80
2022-09-04T14:30:03.153Z,31.10
2022-09-04T14:32:11.558Z,31.10
2022-09-04T14:34:18.973Z,31.20
2022-09-04T14:36:26.559Z,30.80
2022-09-04T14:38:41.132Z,30.40
2022-09-04T14:40:46.821Z,30.30
2022-09-04T14:42:54.611Z,30.20
2022-09-04T14:45:03.913Z,30.30
2022-09-04T14:47:11.760Z,30.20
2022-09-04T14:49:16.224Z,30.00
2022-09-04T14:51:31.228Z,30.00
2022-09-04T14:53:35.373Z,29.90
2022-09-04T14:55:41.152Z,29.70
2022-09-04T14:57:46.240Z,29.50
2022-09-04T14:59:51.891Z,29.20
2022-09-04T15:02:07.821Z,29.40
2022-09-04T15:04:13.127Z,29.40
2022-09-04T15:06:19.353Z,29.30
2022-09-04T15:08:28.393Z,29.20
2022-09-04T15:10:36.201Z,29.00
2022-09-04T15:12:40.296Z,28.80
2022-09-04T15:14:43.025Z,28.70
2022-09-04T15:16:49.569Z,28.70
2022-09-04T15:18:56.224Z,28.60
2022-09-04T15:21:01.980Z,28.40
2022-09-04T15:23:07.424Z,28.30
2022-09-04T15:25:10.904Z,28.40
2022-09-04T15:27:17.309Z,28.40
2022-09-04T15:29:24.979Z,28.40
2022-09-04T15:31:30.222Z,28.40
2022-09-04T15:33:32.959Z,28.40
2022-09-04T15:35:35.997Z,28.40
2022-09-04T15:37:38.720Z,28.30
2022-09-04T15:39:48.456Z,28.00
2022-09-04T15:41:51.248Z,28.00
2022-09-04T15:43:58.556Z,28.10
2022-09-04T15:46:02.949Z,28.00
2022-09-04T15:48:30.221Z,28.00
2022-09-04T15:50:34.539Z,28.00
2022-09-04T15:52:39.849Z,28.00
2022-09-04T15:55:00.735Z,28.00
2022-09-04T15:57:08.412Z,27.90
2022-09-04T15:59:15.059Z,27.80
2022-09-04T16:01:18.552Z,27.80
2022-09-04T16:03:24.650Z,27.70
2022-09-04T16:05:33.402Z,27.60
2022-09-04T16:07:40.366Z,27.60
2022-09-04T16:09:45.924Z,27.40
2022-09-04T16:11:49.997Z,27.50
2022-09-04T16:13:58.303Z,27.50
2022-09-04T16:16:08.295Z,27.40
2022-09-04T16:18:14.565Z,27.30
2022-09-04T16:20:21.164Z,27.30
2022-09-04T16:22:30.659Z,27.20
2022-09-04T16:24:35.902Z,27.20
2022-09-04T16:26:38.739Z,27.10
2022-09-04T16:28:45.486Z,27.00
2022-09-04T16:30:48.570Z,27.00
2022-09-04T16:32:52.735Z,27.00
2022-09-04T16:34:56.408Z,26.90
2022-09-04T16:37:02.114Z,26.90
2022-09-04T16:39:07.255Z,26.80
2022-09-04T16:41:12.639Z,26.70
2022-09-04T16:43:23.702Z,26.60
2022-09-04T16:45:27.616Z,26.50
2022-09-04T16:47:36.331Z,26.40
2022-09-04T16:49:43.429Z,26.20
2022-09-04T16:51:51.173Z,26.10
2022-09-04T16:53:54.991Z,26.10
2022-09-04T16:55:58.829Z,26.00
2022-09-04T16:58:08.735Z,26.00
2022-09-04T17:00:13.620Z,25.90
2022-09-04T17:02:20.527Z,25.90
2022-09-04T17:04:28.181Z,25.80
2022-09-04T17:06:34.447Z,25.80
2022-09-04T17:08:39.253Z,25.70
2022-09-04T17:10:44.342Z,25.60
2022-09-04T17:12:49.592Z,25.60
2022-09-04T17:14:53.526Z,25.50
2022-09-04T17:16:58.300Z,25.40
2022-09-04T17:19:01.039Z,25.40
2022-09-04T17:23:57.664Z,25.30
2022-09-04T17:28:56.761Z,25.30
2022-09-04T17:29:14.606Z,25.20
2022-09-04T17:29:18.364Z,25.20
2022-09-04T17:31:07.795Z,25.00
2022-09-04T17:36:19.180Z,25.00
2022-09-04T17:40:38.612Z,24.90
2022-09-04T17:40:53.765Z,24.80
2022-09-04T17:43:22.641Z,24.70
2022-09-04T17:45:32.597Z,24.70
2022-09-04T17:47:38.076Z,24.60
2022-09-04T17:49:42.467Z,24.50
2022-09-04T17:51:50.141Z,24.50
2022-09-04T17:53:56.241Z,24.50
2022-09-04T17:56:06.614Z,24.40
2022-09-04T17:58:10.520Z,24.40
2022-09-04T18:00:20.348Z,24.30
2022-09-04T18:02:27.103Z,24.20
2022-09-04T18:04:37.438Z,24.10
2022-09-04T18:06:44.043Z,24.00
2022-09-04T18:08:55.169Z,24.00
2022-09-04T18:11:01.889Z,23.90
2022-09-04T18:13:36.239Z,23.90
2022-09-04T18:15:39.149Z,23.90
2022-09-04T18:17:47.808Z,23.80
2022-09-04T18:19:51.191Z,23.70
2022-09-04T18:22:25.209Z,23.70
2022-09-04T18:24:19.192Z,23.70
2022-09-04T18:26:27.885Z,23.60
2022-09-04T18:28:48.562Z,23.50
2022-09-04T18:37:06.096Z,23.50
2022-09-04T18:37:16.623Z,23.40
2022-09-04T18:37:19.200Z,23.40
2022-09-04T18:38:16.859Z,23.30
2022-09-04T18:42:16.667Z,23.20
2022-09-04T18:50:31.549Z,23.20
2022-09-04T18:50:35.599Z,23.20
2022-09-04T18:50:44.723Z,23.20
2022-09-04T18:50:46.487Z,23.10
2022-09-04T18:52:30.381Z,23.10
2022-09-04T18:54:39.463Z,23.00
2022-09-04T18:56:47.004Z,23.00
2022-09-04T18:59:03.641Z,22.90
2022-09-04T19:01:10.632Z,22.90
2022-09-04T19:03:15.028Z,22.80
2022-09-04T19:05:17.943Z,22.80
2022-09-04T19:07:27.336Z,22.80
2022-09-04T19:09:31.849Z,22.80
2022-09-04T19:11:46.160Z,22.80
2022-09-04T19:13:51.037Z,22.70
2022-09-04T19:15:59.202Z,22.70
2022-09-04T19:18:05.279Z,22.60
2022-09-04T19:20:10.064Z,22.70
2022-09-04T19:22:16.779Z,22.60
2022-09-04T19:24:24.835Z,22.60
2022-09-04T19:26:35.782Z,22.60
2022-09-04T19:28:47.062Z,22.50
2022-09-04T19:30:58.767Z,22.50
2022-09-04T19:33:06.073Z,22.50
2022-09-04T19:35:13.358Z,22.40
2022-09-04T19:38:22.584Z,22.40
2022-09-04T19:46:02.728Z,22.40
2022-09-04T19:46:05.612Z,22.40
2022-09-04T19:46:18.371Z,22.40
2022-09-04T19:47:12.321Z,22.30
2022-09-04T19:51:51.090Z,22.30
2022-09-04T19:53:35.314Z,22.20
2022-09-04T19:54:32.843Z,22.20
2022-09-04T19:56:54.821Z,22.10
2022-09-04T19:59:05.591Z,22.20
2022-09-04T20:01:15.156Z,22.10
2022-09-04T20:03:30.554Z,22.10
2022-09-04T20:05:34.452Z,22.00
2022-09-04T20:07:41.683Z,22.00
2022-09-04T20:09:45.779Z,21.90
2022-09-04T20:11:50.757Z,21.90
2022-09-04T20:13:54.700Z,21.90
2022-09-04T20:16:00.539Z,21.80
2022-09-04T20:18:08.332Z,21.80
2022-09-04T20:20:16.064Z,21.80
2022-09-04T20:22:28.712Z,21.80
2022-09-04T20:24:36.300Z,21.80
2022-09-04T20:26:47.193Z,21.70
2022-09-04T20:28:54.778Z,21.70
2022-09-04T20:31:36.224Z,21.70
2022-09-04T20:33:39.739Z,21.60
2022-09-04T20:35:45.363Z,21.60
2022-09-04T20:37:51.631Z,21.60
2022-09-04T20:40:12.330Z,21.60
2022-09-04T20:42:19.597Z,21.50
2022-09-04T20:44:24.551Z,21.50
2022-09-04T20:52:45.271Z,21.40
2022-09-04T20:52:58.418Z,21.40
2022-09-04T20:53:04.638Z,21.40
2022-09-04T20:53:50.103Z,21.40
2022-09-04T20:56:07.848Z,21.30
2022-09-04T21:03:07.474Z,21.20
2022-09-04T21:03:15.152Z,21.30
2022-09-04T21:03:34.238Z,21.20
2022-09-04T21:05:47.190Z,21.20
2022-09-04T21:07:53.425Z,21.20
2022-09-04T21:10:00.522Z,21.10
2022-09-04T21:12:21.533Z,21.10
2022-09-04T21:14:27.421Z,21.10
2022-09-04T21:16:36.160Z,21.10
2022-09-04T21:19:29.610Z,21.00
2022-09-04T21:21:38.429Z,21.00
2022-09-04T21:24:03.745Z,21.00
2022-09-04T21:26:12.925Z,20.90
2022-09-04T21:28:27.533Z,20.90
2022-09-04T21:30:44.044Z,20.90
2022-09-04T21:33:28.282Z,20.90
2022-09-04T21:35:31.379Z,20.90
2022-09-04T21:37:41.689Z,20.80
2022-09-04T21:39:58.458Z,20.80
2022-09-04T21:42:21.816Z,20.70
2022-09-04T21:44:41.679Z,20.70
2022-09-04T21:47:07.425Z,20.70
2022-09-04T21:49:26.592Z,20.70
2022-09-04T21:51:46.632Z,20.70
2022-09-04T21:54:04.273Z,20.70
2022-09-04T22:00:38.571Z,20.60
2022-09-04T22:02:37.799Z,20.50
2022-09-04T22:02:38.451Z,20.60
2022-09-04T22:03:58.337Z,20.50
2022-09-04T22:06:04.866Z,20.50
2022-09-04T22:10:45.690Z,20.40
2022-09-04T22:12:35.171Z,20.50
2022-09-04T22:13:38.172Z,20.40
2022-09-04T22:15:44.064Z,20.40
2022-09-04T22:18:15.976Z,20.40
2022-09-04T22:20:20.964Z,20.40
2022-09-04T22:22:44.675Z,20.30
2022-09-04T22:25:01.319Z,20.30
2022-09-04T22:27:26.095Z,20.30
2022-09-04T22:29:48.224Z,20.30
2022-09-04T22:32:02.920Z,20.20
2022-09-04T22:34:23.412Z,20.20
2022-09-04T22:37:04.507Z,20.10
2022-09-04T22:39:38.004Z,20.10
2022-09-04T22:42:02.874Z,20.10
2022-09-04T22:44:12.111Z,20.10
2022-09-04T22:46:31.001Z,20.10
2022-09-04T22:48:47.928Z,20.00
2022-09-04T22:51:14.343Z,20.00
2022-09-04T22:53:39.737Z,20.00
2022-09-04T22:56:01.155Z,20.00
2022-09-04T22:58:24.687Z,20.00
2022-09-04T23:00:28.613Z,20.00
2022-09-04T23:05:32.755Z,19.90
2022-09-04T23:13:42.487Z,19.90
2022-09-04T23:13:46.411Z,19.90
2022-09-04T23:13:46.989Z,19.90
2022-09-04T23:16:00.950Z,19.80
2022-09-04T23:21:13.605Z,19.80
2022-09-04T23:25:59.891Z,19.70
2022-09-04T23:26:38.100Z,19.70
2022-09-04T23:26:58.314Z,19.70
2022-09-04T23:28:27.214Z,19.70
2022-09-04T23:30:32.035Z,19.60
2022-09-04T23:33:27.490Z,19.60
2022-09-04T23:35:36.425Z,19.60
2022-09-04T23:38:00.017Z,19.60
2022-09-04T23:40:26.235Z,19.60
2022-09-04T23:42:39.841Z,19.50
2022-09-04T23:45:05.742Z,19.50
2022-09-04T23:47:48.579Z,19.50
2022-09-04T23:49:54.919Z,19.40
2022-09-04T23:52:00.017Z,19.40
2022-09-04T23:54:30.899Z,19.40
2022-09-04T23:56:34.528Z,19.40
2022-09-04T23:59:06.629Z,19.40
